sensor_id;sensor_type;location;lat;lon;timestamp;pressure;altitude;pressure_sealevel;temperature;humidity
82575;BME280;72260;65.870;13.210;2023-12-20T00:06:21;98077.72;;;-0.72;83.37
82575;BME280;72260;65.870;13.210;2023-12-20T00:08:47;98079.56;;;-0.74;83.24
82575;BME280;72260;65.870;13.210;2023-12-20T00:11:13;98085.50;;;-0.87;83.33
82575;BME280;72260;65.870;13.210;2023-12-20T00:13:38;98104.19;;;-0.96;85.01
82575;BME280;72260;65.870;13.210;2023-12-20T00:16:04;98119.50;;;-1.08;85.42
82575;BME280;72260;65.870;13.210;2023-12-20T00:18:29;98121.31;;;-0.94;85.43
82575;BME280;72260;65.870;13.210;2023-12-20T00:20:55;98110.19;;;-0.80;86.84
82575;BME280;72260;65.870;13.210;2023-12-20T00:23:20;98111.69;;;-0.76;86.29
82575;BME280;72260;65.870;13.210;2023-12-20T00:25:49;98111.44;;;-0.72;86.65
82575;BME280;72260;65.870;13.210;2023-12-20T00:28:16;98113.56;;;-0.64;86.17
82575;BME280;72260;65.870;13.210;2023-12-20T00:30:41;98113.03;;;-0.55;85.72
82575;BME280;72260;65.870;13.210;2023-12-20T00:35:32;98098.88;;;-0.49;85.70
82575;BME280;72260;65.870;13.210;2023-12-20T00:37:58;98098.53;;;-0.43;85.48
82575;BME280;72260;65.870;13.210;2023-12-20T00:40:24;98089.50;;;-0.52;85.62
82575;BME280;72260;65.870;13.210;2023-12-20T00:42:50;98086.09;;;-0.52;84.46
82575;BME280;72260;65.870;13.210;2023-12-20T00:45:17;98091.22;;;-0.37;83.95
82575;BME280;72260;65.870;13.210;2023-12-20T00:47:42;98083.56;;;-0.54;84.77
82575;BME280;72260;65.870;13.210;2023-12-20T00:50:09;98085.50;;;-0.57;84.89
82575;BME280;72260;65.870;13.210;2023-12-20T00:52:34;98088.94;;;-0.57;85.08
82575;BME280;72260;65.870;13.210;2023-12-20T00:55:00;98093.09;;;-0.69;84.83
82575;BME280;72260;65.870;13.210;2023-12-20T00:57:27;98089.59;;;-0.53;84.36
82575;BME280;72260;65.870;13.210;2023-12-20T00:59:52;98099.81;;;-0.50;84.82
82575;BME280;72260;65.870;13.210;2023-12-20T01:02:21;98096.25;;;-0.63;84.57
82575;BME280;72260;65.870;13.210;2023-12-20T01:04:47;98091.94;;;-0.49;84.42
82575;BME280;72260;65.870;13.210;2023-12-20T01:07:13;98090.69;;;-0.57;84.83
82575;BME280;72260;65.870;13.210;2023-12-20T01:09:39;98095.22;;;-0.61;84.13
82575;BME280;72260;65.870;13.210;2023-12-20T01:12:04;98100.25;;;-0.58;84.13
82575;BME280;72260;65.870;13.210;2023-12-20T01:14:31;98102.50;;;-0.52;83.90
82575;BME280;72260;65.870;13.210;2023-12-20T01:16:56;98119.25;;;-0.57;83.80
82575;BME280;72260;65.870;13.210;2023-12-20T01:19:22;98117.47;;;-0.57;84.32
82575;BME280;72260;65.870;13.210;2023-12-20T01:21:50;98112.97;;;-0.53;83.71
82575;BME280;72260;65.870;13.210;2023-12-20T01:24:16;98115.81;;;-0.58;83.78
82575;BME280;72260;65.870;13.210;2023-12-20T01:26:41;98121.41;;;-0.50;84.01
82575;BME280;72260;65.870;13.210;2023-12-20T01:29:08;98125.75;;;-0.50;84.71
82575;BME280;72260;65.870;13.210;2023-12-20T01:31:34;98119.56;;;-0.48;84.45
82575;BME280;72260;65.870;13.210;2023-12-20T01:34:01;98117.84;;;-0.33;84.18
82575;BME280;72260;65.870;13.210;2023-12-20T01:36:28;98120.31;;;-0.46;83.61
82575;BME280;72260;65.870;13.210;2023-12-20T01:38:54;98113.94;;;-0.40;83.49
82575;BME280;72260;65.870;13.210;2023-12-20T01:41:19;98107.56;;;-0.35;83.51
82575;BME280;72260;65.870;13.210;2023-12-20T01:43:45;98105.78;;;-0.34;83.17
82575;BME280;72260;65.870;13.210;2023-12-20T01:46:10;98112.66;;;-0.33;83.53
82575;BME280;72260;65.870;13.210;2023-12-20T01:48:37;98118.69;;;-0.18;83.09
82575;BME280;72260;65.870;13.210;2023-12-20T01:51:04;98113.59;;;-0.34;81.82
82575;BME280;72260;65.870;13.210;2023-12-20T01:53:30;98122.41;;;-0.52;82.21
82575;BME280;72260;65.870;13.210;2023-12-20T02:00:47;98115.31;;;-0.64;84.17
82575;BME280;72260;65.870;13.210;2023-12-20T02:03:14;98117.13;;;-0.65;83.85
82575;BME280;72260;65.870;13.210;2023-12-20T02:05:40;98118.63;;;-0.77;84.14
82575;BME280;72260;65.870;13.210;2023-12-20T02:10:31;98109.44;;;-0.82;85.26
82575;BME280;72260;65.870;13.210;2023-12-20T02:15:22;98107.16;;;-0.73;85.65
82575;BME280;72260;65.870;13.210;2023-12-20T02:17:47;98110.84;;;-0.77;84.42
82575;BME280;72260;65.870;13.210;2023-12-20T02:20:15;98112.25;;;-0.71;84.48
82575;BME280;72260;65.870;13.210;2023-12-20T02:22:40;98116.91;;;-0.62;84.70
82575;BME280;72260;65.870;13.210;2023-12-20T02:25:06;98124.97;;;-0.66;83.88
82575;BME280;72260;65.870;13.210;2023-12-20T02:27:32;98120.88;;;-0.71;83.79
82575;BME280;72260;65.870;13.210;2023-12-20T02:29:57;98132.44;;;-0.76;82.78
82575;BME280;72260;65.870;13.210;2023-12-20T02:32:24;98132.28;;;-0.73;83.87
82575;BME280;72260;65.870;13.210;2023-12-20T02:34:53;98136.78;;;-0.77;84.57
82575;BME280;72260;65.870;13.210;2023-12-20T02:37:18;98128.59;;;-0.69;83.88
82575;BME280;72260;65.870;13.210;2023-12-20T02:39:44;98139.63;;;-0.65;83.83
82575;BME280;72260;65.870;13.210;2023-12-20T02:42:09;98136.53;;;-0.72;83.85
82575;BME280;72260;65.870;13.210;2023-12-20T02:44:35;98135.53;;;-0.70;84.38
82575;BME280;72260;65.870;13.210;2023-12-20T02:49:26;98131.22;;;-0.55;83.62
82575;BME280;72260;65.870;13.210;2023-12-20T02:51:52;98136.47;;;-0.56;84.60
82575;BME280;72260;65.870;13.210;2023-12-20T02:54:17;98135.91;;;-0.61;84.26
82575;BME280;72260;65.870;13.210;2023-12-20T02:56:43;98132.56;;;-0.63;84.34
82575;BME280;72260;65.870;13.210;2023-12-20T03:01:33;98140.47;;;-0.65;84.46
82575;BME280;72260;65.870;13.210;2023-12-20T03:04:00;98139.09;;;-0.56;83.76
82575;BME280;72260;65.870;13.210;2023-12-20T03:06:27;98134.44;;;-0.65;84.04
82575;BME280;72260;65.870;13.210;2023-12-20T03:11:18;98132.78;;;-0.82;84.58
82575;BME280;72260;65.870;13.210;2023-12-20T03:13:44;98133.03;;;-0.87;84.73
82575;BME280;72260;65.870;13.210;2023-12-20T03:16:11;98138.31;;;-0.88;85.00
82575;BME280;72260;65.870;13.210;2023-12-20T03:18:37;98134.78;;;-0.87;84.06
82575;BME280;72260;65.870;13.210;2023-12-20T03:23:28;98132.53;;;-0.93;83.94
82575;BME280;72260;65.870;13.210;2023-12-20T03:25:56;98131.22;;;-1.00;83.96
82575;BME280;72260;65.870;13.210;2023-12-20T03:28:21;98122.63;;;-1.01;83.88
82575;BME280;72260;65.870;13.210;2023-12-20T03:30:46;98121.19;;;-1.07;84.01
82575;BME280;72260;65.870;13.210;2023-12-20T03:33:12;98119.59;;;-1.09;83.70
82575;BME280;72260;65.870;13.210;2023-12-20T03:35:37;98130.56;;;-1.04;84.67
82575;BME280;72260;65.870;13.210;2023-12-20T03:38:03;98132.66;;;-1.11;84.84
82575;BME280;72260;65.870;13.210;2023-12-20T03:40:30;98138.84;;;-1.13;83.50
82575;BME280;72260;65.870;13.210;2023-12-20T03:42:55;98132.78;;;-1.29;84.04
82575;BME280;72260;65.870;13.210;2023-12-20T03:45:21;98133.47;;;-1.42;84.67
82575;BME280;72260;65.870;13.210;2023-12-20T03:47:46;98133.88;;;-1.49;83.99
82575;BME280;72260;65.870;13.210;2023-12-20T03:50:13;98136.47;;;-1.65;85.08
82575;BME280;72260;65.870;13.210;2023-12-20T03:52:39;98130.44;;;-1.65;85.44
82575;BME280;72260;65.870;13.210;2023-12-20T03:55:05;98134.78;;;-1.66;85.80
82575;BME280;72260;65.870;13.210;2023-12-20T03:57:32;98134.63;;;-1.63;85.48
82575;BME280;72260;65.870;13.210;2023-12-20T03:59:59;98128.25;;;-1.73;84.77
82575;BME280;72260;65.870;13.210;2023-12-20T04:02:24;98127.75;;;-1.80;84.22
82575;BME280;72260;65.870;13.210;2023-12-20T04:04:50;98129.56;;;-1.82;84.12
82575;BME280;72260;65.870;13.210;2023-12-20T04:09:42;98130.72;;;-1.87;84.50
82575;BME280;72260;65.870;13.210;2023-12-20T04:12:07;98136.56;;;-1.84;84.08
82575;BME280;72260;65.870;13.210;2023-12-20T04:16:58;98128.19;;;-2.22;85.55
82575;BME280;72260;65.870;13.210;2023-12-20T04:19:24;98131.06;;;-2.11;85.16
82575;BME280;72260;65.870;13.210;2023-12-20T04:21:52;98143.72;;;-2.05;86.85
82575;BME280;72260;65.870;13.210;2023-12-20T04:26:43;98148.00;;;-1.88;86.64
82575;BME280;72260;65.870;13.210;2023-12-20T04:29:09;98147.97;;;-1.71;86.74
82575;BME280;72260;65.870;13.210;2023-12-20T04:31:34;98162.84;;;-1.74;85.96
82575;BME280;72260;65.870;13.210;2023-12-20T04:36:25;98183.50;;;-1.90;87.64
82575;BME280;72260;65.870;13.210;2023-12-20T04:41:17;98181.75;;;-1.89;88.24
82575;BME280;72260;65.870;13.210;2023-12-20T04:43:44;98174.50;;;-1.83;88.08
82575;BME280;72260;65.870;13.210;2023-12-20T04:46:10;98174.94;;;-1.75;87.01
82575;BME280;72260;65.870;13.210;2023-12-20T04:53:27;98182.97;;;-1.79;85.92
82575;BME280;72260;65.870;13.210;2023-12-20T04:55:53;98179.69;;;-1.83;86.84
82575;BME280;72260;65.870;13.210;2023-12-20T04:58:18;98183.94;;;-1.82;87.27
82575;BME280;72260;65.870;13.210;2023-12-20T05:00:44;98188.75;;;-1.74;87.30
82575;BME280;72260;65.870;13.210;2023-12-20T05:03:09;98196.97;;;-1.66;87.11
82575;BME280;72260;65.870;13.210;2023-12-20T05:05:35;98187.69;;;-1.54;86.66
82575;BME280;72260;65.870;13.210;2023-12-20T05:08:02;98196.47;;;-1.57;86.16
82575;BME280;72260;65.870;13.210;2023-12-20T05:10:27;98194.56;;;-1.53;85.85
82575;BME280;72260;65.870;13.210;2023-12-20T05:12:53;98191.13;;;-1.54;84.47
82575;BME280;72260;65.870;13.210;2023-12-20T05:15:20;98195.78;;;-1.60;85.05
82575;BME280;72260;65.870;13.210;2023-12-20T05:17:47;98195.97;;;-1.63;84.99
82575;BME280;72260;65.870;13.210;2023-12-20T05:20:13;98197.38;;;-1.58;84.59
82575;BME280;72260;65.870;13.210;2023-12-20T05:22:38;98206.81;;;-1.57;84.57
82575;BME280;72260;65.870;13.210;2023-12-20T05:28:20;98210.06;;;-1.69;83.48
82575;BME280;72260;65.870;13.210;2023-12-20T05:30:45;98217.91;;;-1.88;84.19
82575;BME280;72260;65.870;13.210;2023-12-20T05:33:11;98215.28;;;-2.04;84.39
82575;BME280;72260;65.870;13.210;2023-12-20T05:35:37;98217.66;;;-1.99;83.91
82575;BME280;72260;65.870;13.210;2023-12-20T05:38:02;98220.47;;;-2.04;83.67
82575;BME280;72260;65.870;13.210;2023-12-20T05:40:28;98216.41;;;-2.09;84.20
82575;BME280;72260;65.870;13.210;2023-12-20T05:42:54;98218.41;;;-2.14;84.30
82575;BME280;72260;65.870;13.210;2023-12-20T05:45:20;98213.00;;;-2.10;83.11
82575;BME280;72260;65.870;13.210;2023-12-20T05:47:46;98214.06;;;-2.31;83.95
82575;BME280;72260;65.870;13.210;2023-12-20T05:50:13;98219.53;;;-2.37;83.92
82575;BME280;72260;65.870;13.210;2023-12-20T05:52:38;98217.47;;;-2.48;85.00
82575;BME280;72260;65.870;13.210;2023-12-20T05:55:04;98227.16;;;-2.34;84.80
82575;BME280;72260;65.870;13.210;2023-12-20T05:57:29;98222.41;;;-2.43;84.65
82575;BME280;72260;65.870;13.210;2023-12-20T05:59:55;98224.50;;;-2.32;84.47
82575;BME280;72260;65.870;13.210;2023-12-20T06:02:20;98232.03;;;-2.28;83.97
82575;BME280;72260;65.870;13.210;2023-12-20T06:04:47;98232.00;;;-2.45;84.21
82575;BME280;72260;65.870;13.210;2023-12-20T06:09:39;98221.16;;;-2.71;84.47
82575;BME280;72260;65.870;13.210;2023-12-20T06:12:06;98224.84;;;-2.76;84.40
82575;BME280;72260;65.870;13.210;2023-12-20T06:14:36;98227.31;;;-2.56;84.43
82575;BME280;72260;65.870;13.210;2023-12-20T06:21:51;98224.44;;;-2.50;84.85
82575;BME280;72260;65.870;13.210;2023-12-20T06:26:42;98231.44;;;-2.52;83.72
82575;BME280;72260;65.870;13.210;2023-12-20T06:29:08;98241.72;;;-2.50;84.09
82575;BME280;72260;65.870;13.210;2023-12-20T06:31:34;98235.41;;;-2.45;84.42
82575;BME280;72260;65.870;13.210;2023-12-20T06:36:26;98240.81;;;-2.49;84.63
82575;BME280;72260;65.870;13.210;2023-12-20T06:38:52;98235.84;;;-2.54;83.64
82575;BME280;72260;65.870;13.210;2023-12-20T06:41:17;98241.00;;;-2.71;85.57
82575;BME280;72260;65.870;13.210;2023-12-20T06:46:08;98247.28;;;-2.77;86.60
82575;BME280;72260;65.870;13.210;2023-12-20T06:48:34;98247.84;;;-2.70;86.41
82575;BME280;72260;65.870;13.210;2023-12-20T06:51:01;98253.66;;;-2.48;85.72
82575;BME280;72260;65.870;13.210;2023-12-20T06:53:30;98252.88;;;-2.31;84.75
82575;BME280;72260;65.870;13.210;2023-12-20T06:58:20;98251.56;;;-2.40;85.51
82575;BME280;72260;65.870;13.210;2023-12-20T07:05:43;98229.53;;;-2.29;84.81
82575;BME280;72260;65.870;13.210;2023-12-20T07:08:09;98235.28;;;-2.24;85.72
82575;BME280;72260;65.870;13.210;2023-12-20T07:10:34;98245.97;;;-2.13;86.19
82575;BME280;72260;65.870;13.210;2023-12-20T07:15:25;98245.41;;;-2.20;85.53
82575;BME280;72260;65.870;13.210;2023-12-20T07:17:52;98248.25;;;-2.07;84.79
82575;BME280;72260;65.870;13.210;2023-12-20T07:22:43;98250.50;;;-2.18;85.31
82575;BME280;72260;65.870;13.210;2023-12-20T07:27:33;98254.03;;;-2.02;84.81
82575;BME280;72260;65.870;13.210;2023-12-20T07:32:24;98252.03;;;-2.14;85.48
82575;BME280;72260;65.870;13.210;2023-12-20T07:34:49;98257.22;;;-2.14;85.10
82575;BME280;72260;65.870;13.210;2023-12-20T07:37:16;98257.50;;;-2.20;85.14
82575;BME280;72260;65.870;13.210;2023-12-20T07:39:42;98264.44;;;-2.38;83.74
82575;BME280;72260;65.870;13.210;2023-12-20T07:42:08;98262.28;;;-2.47;83.81
82575;BME280;72260;65.870;13.210;2023-12-20T07:49:24;98270.53;;;-2.58;84.58
82575;BME280;72260;65.870;13.210;2023-12-20T07:51:49;98269.41;;;-2.52;84.62
82575;BME280;72260;65.870;13.210;2023-12-20T07:56:40;98275.19;;;-2.47;84.77
82575;BME280;72260;65.870;13.210;2023-12-20T07:59:05;98271.91;;;-2.51;84.00
82575;BME280;72260;65.870;13.210;2023-12-20T08:06:21;98265.53;;;-2.61;84.97
82575;BME280;72260;65.870;13.210;2023-12-20T08:08:47;98274.47;;;-2.68;84.13
82575;BME280;72260;65.870;13.210;2023-12-20T08:11:13;98285.44;;;-2.63;84.65
82575;BME280;72260;65.870;13.210;2023-12-20T08:13:40;98278.03;;;-2.71;84.86
82575;BME280;72260;65.870;13.210;2023-12-20T08:18:34;98280.63;;;-2.71;83.90
82575;BME280;72260;65.870;13.210;2023-12-20T08:23:25;98277.34;;;-2.93;83.60
82575;BME280;72260;65.870;13.210;2023-12-20T08:28:15;98288.56;;;-3.13;83.57
82575;BME280;72260;65.870;13.210;2023-12-20T08:30:41;98292.41;;;-3.21;84.37
82575;BME280;72260;65.870;13.210;2023-12-20T08:35:32;98292.13;;;-3.34;84.70
82575;BME280;72260;65.870;13.210;2023-12-20T08:40:22;98299.81;;;-3.32;85.14
82575;BME280;72260;65.870;13.210;2023-12-20T08:42:48;98293.25;;;-3.21;85.01
82575;BME280;72260;65.870;13.210;2023-12-20T08:47:39;98298.13;;;-3.15;85.03
82575;BME280;72260;65.870;13.210;2023-12-20T08:50:06;98292.84;;;-3.12;84.34
82575;BME280;72260;65.870;13.210;2023-12-20T08:57:22;98292.41;;;-3.21;83.52
82575;BME280;72260;65.870;13.210;2023-12-20T08:59:51;98285.34;;;-3.36;83.95
82575;BME280;72260;65.870;13.210;2023-12-20T09:02:18;98292.81;;;-3.30;84.46
82575;BME280;72260;65.870;13.210;2023-12-20T09:04:43;98292.00;;;-3.51;84.03
82575;BME280;72260;65.870;13.210;2023-12-20T09:09:34;98297.00;;;-3.67;84.74
82575;BME280;72260;65.870;13.210;2023-12-20T09:14:24;98299.25;;;-3.59;84.68
82575;BME280;72260;65.870;13.210;2023-12-20T09:16:50;98308.75;;;-3.60;84.82
82575;BME280;72260;65.870;13.210;2023-12-20T09:21:46;98312.41;;;-3.65;84.95
82575;BME280;72260;65.870;13.210;2023-12-20T09:24:11;98303.34;;;-3.55;84.41
82575;BME280;72260;65.870;13.210;2023-12-20T09:26:37;98310.34;;;-3.57;84.17
82575;BME280;72260;65.870;13.210;2023-12-20T09:29:02;98312.91;;;-3.37;82.94
82575;BME280;72260;65.870;13.210;2023-12-20T09:31:28;98311.09;;;-3.55;82.34
82575;BME280;72260;65.870;13.210;2023-12-20T09:36:21;98310.75;;;-3.88;82.71
82575;BME280;72260;65.870;13.210;2023-12-20T09:41:11;98313.94;;;-4.02;83.66
82575;BME280;72260;65.870;13.210;2023-12-20T09:43:37;98310.44;;;-4.01;83.43
82575;BME280;72260;65.870;13.210;2023-12-20T09:48:28;98309.94;;;-3.89;84.62
82575;BME280;72260;65.870;13.210;2023-12-20T09:53:21;98298.63;;;-4.07;83.92
82575;BME280;72260;65.870;13.210;2023-12-20T09:55:48;98294.16;;;-4.23;84.89
82575;BME280;72260;65.870;13.210;2023-12-20T09:58:14;98303.81;;;-4.28;84.23
82575;BME280;72260;65.870;13.210;2023-12-20T10:00:40;98299.94;;;-4.18;84.31
82575;BME280;72260;65.870;13.210;2023-12-20T10:03:06;98305.56;;;-4.29;84.35
82575;BME280;72260;65.870;13.210;2023-12-20T10:05:33;98306.31;;;-4.05;83.94
82575;BME280;72260;65.870;13.210;2023-12-20T10:10:34;98315.72;;;-4.04;83.31
82575;BME280;72260;65.870;13.210;2023-12-20T10:15:25;98313.69;;;-3.96;83.48
82575;BME280;72260;65.870;13.210;2023-12-20T10:17:50;98301.22;;;-4.07;83.07
82575;BME280;72260;65.870;13.210;2023-12-20T10:20:16;98309.50;;;-3.98;83.81
82575;BME280;72260;65.870;13.210;2023-12-20T10:27:32;98321.06;;;-4.09;83.22
82575;BME280;72260;65.870;13.210;2023-12-20T10:32:23;98326.25;;;-4.30;82.14
82575;BME280;72260;65.870;13.210;2023-12-20T10:34:54;98322.91;;;-4.32;82.17
82575;BME280;72260;65.870;13.210;2023-12-20T10:39:49;98321.28;;;-4.35;82.37
82575;BME280;72260;65.870;13.210;2023-12-20T10:42:17;98321.38;;;-4.16;81.05
82575;BME280;72260;65.870;13.210;2023-12-20T10:44:44;98318.13;;;-4.21;82.30
82575;BME280;72260;65.870;13.210;2023-12-20T10:47:14;98320.47;;;-4.15;84.76
82575;BME280;72260;65.870;13.210;2023-12-20T10:54:30;98309.84;;;-4.08;83.44
82575;BME280;72260;65.870;13.210;2023-12-20T10:59:23;98308.53;;;-3.96;83.96
82575;BME280;72260;65.870;13.210;2023-12-20T11:01:50;98318.19;;;-3.81;84.40
82575;BME280;72260;65.870;13.210;2023-12-20T11:04:23;98311.88;;;-3.74;84.25
82575;BME280;72260;65.870;13.210;2023-12-20T11:09:33;98307.38;;;-3.68;82.08
82575;BME280;72260;65.870;13.210;2023-12-20T11:19:21;98325.56;;;-3.92;81.48
82575;BME280;72260;65.870;13.210;2023-12-20T11:21:47;98324.38;;;-3.85;81.90
82575;BME280;72260;65.870;13.210;2023-12-20T11:24:12;98324.97;;;-3.78;81.44
82575;BME280;72260;65.870;13.210;2023-12-20T11:26:46;98324.91;;;-3.77;81.27
82575;BME280;72260;65.870;13.210;2023-12-20T11:29:35;98324.91;;;-3.77;81.05
82575;BME280;72260;65.870;13.210;2023-12-20T11:34:33;98327.44;;;-3.95;81.27
82575;BME280;72260;65.870;13.210;2023-12-20T11:37:02;98326.66;;;-3.97;81.88
82575;BME280;72260;65.870;13.210;2023-12-20T11:39:30;98322.22;;;-4.16;80.87
82575;BME280;72260;65.870;13.210;2023-12-20T11:41:56;98326.03;;;-4.24;80.25
82575;BME280;72260;65.870;13.210;2023-12-20T11:44:25;98335.56;;;-4.26;80.87
82575;BME280;72260;65.870;13.210;2023-12-20T11:46:51;98329.50;;;-4.25;80.89
82575;BME280;72260;65.870;13.210;2023-12-20T11:49:17;98326.56;;;-4.38;81.49
82575;BME280;72260;65.870;13.210;2023-12-20T11:51:42;98325.47;;;-4.32;80.63
82575;BME280;72260;65.870;13.210;2023-12-20T11:54:08;98313.78;;;-4.41;81.09
82575;BME280;72260;65.870;13.210;2023-12-20T11:56:35;98328.34;;;-4.40;81.92
82575;BME280;72260;65.870;13.210;2023-12-20T12:01:26;98327.22;;;-4.33;82.42
82575;BME280;72260;65.870;13.210;2023-12-20T12:06:21;98321.75;;;-4.25;83.13
82575;BME280;72260;65.870;13.210;2023-12-20T12:08:46;98313.97;;;-4.24;82.35
82575;BME280;72260;65.870;13.210;2023-12-20T12:11:12;98317.91;;;-4.15;81.81
82575;BME280;72260;65.870;13.210;2023-12-20T12:13:37;98318.44;;;-4.07;81.62
82575;BME280;72260;65.870;13.210;2023-12-20T12:16:04;98312.78;;;-3.95;82.30
82575;BME280;72260;65.870;13.210;2023-12-20T12:18:30;98304.91;;;-3.92;82.29
82575;BME280;72260;65.870;13.210;2023-12-20T12:23:23;98296.78;;;-3.62;82.41
82575;BME280;72260;65.870;13.210;2023-12-20T12:25:50;98296.28;;;-3.70;80.11
82575;BME280;72260;65.870;13.210;2023-12-20T12:28:15;98297.56;;;-3.81;80.59
82575;BME280;72260;65.870;13.210;2023-12-20T12:30:41;98298.25;;;-3.97;80.71
82575;BME280;72260;65.870;13.210;2023-12-20T12:33:07;98297.03;;;-3.89;80.26
82575;BME280;72260;65.870;13.210;2023-12-20T12:37:58;98292.63;;;-3.87;80.01
82575;BME280;72260;65.870;13.210;2023-12-20T12:40:24;98291.38;;;-3.97;81.06
82575;BME280;72260;65.870;13.210;2023-12-20T12:42:53;98295.38;;;-3.90;80.25
82575;BME280;72260;65.870;13.210;2023-12-20T12:45:18;98290.41;;;-3.94;80.68
82575;BME280;72260;65.870;13.210;2023-12-20T12:52:34;98284.72;;;-4.02;80.89
82575;BME280;72260;65.870;13.210;2023-12-20T12:55:00;98275.88;;;-3.97;80.35
82575;BME280;72260;65.870;13.210;2023-12-20T12:57:26;98283.22;;;-4.08;80.98
82575;BME280;72260;65.870;13.210;2023-12-20T12:59:51;98287.47;;;-4.07;80.52
82575;BME280;72260;65.870;13.210;2023-12-20T13:02:17;98285.13;;;-4.13;81.16
82575;BME280;72260;65.870;13.210;2023-12-20T13:04:43;98280.75;;;-4.11;80.69
82575;BME280;72260;65.870;13.210;2023-12-20T13:07:10;98282.84;;;-4.21;80.78
82575;BME280;72260;65.870;13.210;2023-12-20T13:09:38;98277.69;;;-4.21;79.89
82575;BME280;72260;65.870;13.210;2023-12-20T13:16:54;98282.50;;;-4.12;79.65
82575;BME280;72260;65.870;13.210;2023-12-20T13:21:47;98287.06;;;-4.18;80.32
82575;BME280;72260;65.870;13.210;2023-12-20T13:26:42;98280.94;;;-4.16;80.97
82575;BME280;72260;65.870;13.210;2023-12-20T13:31:46;98285.06;;;-4.32;79.74
82575;BME280;72260;65.870;13.210;2023-12-20T13:39:16;98279.97;;;-4.13;81.24
82575;BME280;72260;65.870;13.210;2023-12-20T13:41:42;98281.53;;;-3.89;80.79
82575;BME280;72260;65.870;13.210;2023-12-20T13:44:08;98280.69;;;-3.89;79.97
82575;BME280;72260;65.870;13.210;2023-12-20T14:04:43;98247.91;;;-4.28;80.04
82575;BME280;72260;65.870;13.210;2023-12-20T14:07:08;98258.81;;;-4.21;79.12
82575;BME280;72260;65.870;13.210;2023-12-20T14:09:35;98265.16;;;-4.08;78.64
82575;BME280;72260;65.870;13.210;2023-12-20T14:12:00;98260.22;;;-4.34;80.25
82575;BME280;72260;65.870;13.210;2023-12-20T14:14:26;98259.31;;;-4.33;80.25
82575;BME280;72260;65.870;13.210;2023-12-20T14:16:51;98263.22;;;-4.23;79.35
82575;BME280;72260;65.870;13.210;2023-12-20T14:19:17;98256.75;;;-4.33;79.41
82575;BME280;72260;65.870;13.210;2023-12-20T14:21:43;98261.66;;;-4.27;78.82
82575;BME280;72260;65.870;13.210;2023-12-20T14:24:13;98261.47;;;-4.45;79.12
82575;BME280;72260;65.870;13.210;2023-12-20T14:26:41;98253.34;;;-4.56;80.31
82575;BME280;72260;65.870;13.210;2023-12-20T14:29:07;98249.25;;;-4.40;80.08
82575;BME280;72260;65.870;13.210;2023-12-20T14:31:35;98248.09;;;-4.54;80.36
82575;BME280;72260;65.870;13.210;2023-12-20T14:34:02;98248.25;;;-4.57;80.03
82575;BME280;72260;65.870;13.210;2023-12-20T14:36:29;98238.63;;;-4.54;80.41
82575;BME280;72260;65.870;13.210;2023-12-20T14:38:57;98243.09;;;-4.57;80.39
82575;BME280;72260;65.870;13.210;2023-12-20T14:41:23;98238.78;;;-4.57;79.86
82575;BME280;72260;65.870;13.210;2023-12-20T14:43:53;98246.50;;;-4.57;79.50
82575;BME280;72260;65.870;13.210;2023-12-20T14:46:18;98241.41;;;-4.58;79.74
82575;BME280;72260;65.870;13.210;2023-12-20T14:48:44;98240.69;;;-4.62;79.24
82575;BME280;72260;65.870;13.210;2023-12-20T14:51:10;98235.03;;;-4.50;78.97
82575;BME280;72260;65.870;13.210;2023-12-20T14:53:37;98233.22;;;-4.48;78.77
82575;BME280;72260;65.870;13.210;2023-12-20T15:01:16;98223.03;;;-4.51;79.35
82575;BME280;72260;65.870;13.210;2023-12-20T15:03:42;98209.44;;;-4.54;79.89
82575;BME280;72260;65.870;13.210;2023-12-20T15:06:29;98207.00;;;-4.57;79.57
82575;BME280;72260;65.870;13.210;2023-12-20T15:09:00;98196.19;;;-4.45;82.22
82575;BME280;72260;65.870;13.210;2023-12-20T15:11:27;98210.25;;;-4.32;79.12
82575;BME280;72260;65.870;13.210;2023-12-20T15:13:54;98213.44;;;-4.47;79.63
82575;BME280;72260;65.870;13.210;2023-12-20T15:23:56;98191.97;;;-4.26;79.46
82575;BME280;72260;65.870;13.210;2023-12-20T15:26:42;98212.19;;;-4.17;79.15
82575;BME280;72260;65.870;13.210;2023-12-20T15:29:09;98215.06;;;-4.45;80.74
82575;BME280;72260;65.870;13.210;2023-12-20T15:31:45;98202.16;;;-4.45;80.36
82575;BME280;72260;65.870;13.210;2023-12-20T15:34:11;98178.41;;;-4.73;80.66
82575;BME280;72260;65.870;13.210;2023-12-20T15:36:38;98172.41;;;-4.74;80.95
82575;BME280;72260;65.870;13.210;2023-12-20T15:39:05;98208.81;;;-4.59;80.69
82575;BME280;72260;65.870;13.210;2023-12-20T15:41:30;98164.59;;;-4.92;80.83
82575;BME280;72260;65.870;13.210;2023-12-20T15:43:56;98182.31;;;-4.85;80.15
82575;BME280;72260;65.870;13.210;2023-12-20T15:46:22;98207.84;;;-4.57;79.91
82575;BME280;72260;65.870;13.210;2023-12-20T15:48:47;98206.16;;;-4.58;80.65
82575;BME280;72260;65.870;13.210;2023-12-20T15:51:14;98176.75;;;-4.74;79.71
82575;BME280;72260;65.870;13.210;2023-12-20T15:53:40;98160.22;;;-4.90;80.21
82575;BME280;72260;65.870;13.210;2023-12-20T15:56:06;98197.59;;;-4.80;80.90
82575;BME280;72260;65.870;13.210;2023-12-20T15:58:32;98198.63;;;-4.62;79.81
82575;BME280;72260;65.870;13.210;2023-12-20T16:00:59;98162.41;;;-4.81;79.88
82575;BME280;72260;65.870;13.210;2023-12-20T16:03:25;98154.31;;;-4.72;79.05
82575;BME280;72260;65.870;13.210;2023-12-20T16:05:50;98178.72;;;-4.59;78.74
82575;BME280;72260;65.870;13.210;2023-12-20T16:08:16;98185.28;;;-4.52;78.15
82575;BME280;72260;65.870;13.210;2023-12-20T16:23:37;98169.88;;;-4.53;80.20
82575;BME280;72260;65.870;13.210;2023-12-20T16:26:06;98150.78;;;-4.69;80.69
82575;BME280;72260;65.870;13.210;2023-12-20T16:28:32;98176.44;;;-4.66;79.80
82575;BME280;72260;65.870;13.210;2023-12-20T16:31:01;98180.06;;;-4.50;78.75
82575;BME280;72260;65.870;13.210;2023-12-20T16:33:32;98137.66;;;-4.85;79.48
82575;BME280;72260;65.870;13.210;2023-12-20T16:38:33;98173.63;;;-4.60;78.68
82575;BME280;72260;65.870;13.210;2023-12-20T16:40:58;98165.53;;;-4.53;78.01
82575;BME280;72260;65.870;13.210;2023-12-20T16:43:28;98158.34;;;-4.65;77.97
82575;BME280;72260;65.870;13.210;2023-12-20T16:45:54;98160.19;;;-4.68;79.52